createdAt,value
2019-06-26T00:00:47.930Z,58.46
2019-06-26T00:03:18.559Z,58.74
2019-06-26T00:05:49.016Z,59.80
2019-06-26T00:08:19.440Z,60.57
2019-06-26T00:10:49.958Z,61.07
2019-06-26T00:13:26.131Z,61.29
2019-06-26T00:15:52.703Z,62.13
2019-06-26T00:18:23.292Z,62.53
2019-06-26T00:20:53.924Z,64.59
2019-06-26T00:23:24.661Z,63.47
2019-06-26T00:25:55.527Z,61.05
2019-06-26T00:28:26.028Z,58.81
2019-06-26T00:30:56.536Z,56.85
2019-06-26T00:33:26.941Z,56.33
2019-06-26T00:35:57.524Z,56.91
2019-06-26T00:38:27.927Z,57.75
2019-06-26T00:40:58.386Z,58.78
2019-06-26T00:43:41.588Z,59.47
2019-06-26T00:46:00.903Z,60.37
2019-06-26T00:48:31.529Z,61.37
2019-06-26T00:51:02.232Z,62.10
2019-06-26T00:53:32.617Z,64.96
2019-06-26T00:56:03.018Z,63.31
2019-06-26T00:58:33.567Z,61.22
2019-06-26T01:01:03.983Z,59.19
2019-06-26T01:03:34.443Z,57.52
2019-06-26T01:06:04.999Z,57.16
2019-06-26T01:08:35.384Z,57.93
2019-06-26T01:11:05.921Z,58.78
2019-06-26T01:13:36.342Z,59.97
2019-06-26T01:16:06.739Z,60.95
2019-06-26T01:18:37.145Z,61.68
2019-06-26T01:21:07.628Z,62.12
2019-06-26T01:23:38.467Z,65.43
2019-06-26T01:26:09.157Z,64.30
2019-06-26T01:28:39.694Z,61.89
2019-06-26T01:31:10.085Z,59.88
2019-06-26T01:33:40.471Z,58.13
2019-06-26T01:36:12.338Z,56.37
2019-06-26T01:38:43.749Z,56.53
2019-06-26T01:41:14.652Z,57.45
2019-06-26T01:43:45.210Z,58.56
2019-06-26T01:46:15.626Z,60.01
2019-06-26T01:48:45.968Z,61.14
2019-06-26T01:51:16.478Z,62.25
2019-06-26T01:53:46.863Z,65.24
2019-06-26T01:56:17.277Z,64.43
2019-06-26T01:58:47.631Z,62.60
2019-06-26T02:01:18.044Z,60.87
2019-06-26T02:03:48.495Z,59.38
2019-06-26T02:06:18.887Z,57.45
2019-06-26T02:08:49.265Z,57.27
2019-06-26T02:11:19.762Z,58.00
2019-06-26T02:13:50.139Z,59.25
2019-06-26T02:16:20.609Z,60.19
2019-06-26T02:18:52.588Z,61.47
2019-06-26T02:21:23.951Z,62.58
2019-06-26T02:23:54.540Z,65.51
2019-06-26T02:26:25.735Z,65.08
2019-06-26T02:28:56.451Z,63.26
2019-06-26T02:31:26.912Z,61.49
2019-06-26T02:33:57.343Z,59.96
2019-06-26T02:36:29.457Z,58.63
2019-06-26T02:38:59.935Z,57.07
2019-06-26T02:41:30.331Z,57.03
2019-06-26T02:44:00.910Z,57.98
2019-06-26T02:46:31.400Z,59.00
2019-06-26T02:49:01.800Z,60.20
2019-06-26T02:51:32.256Z,61.09
2019-06-26T02:54:02.651Z,62.24
2019-06-26T02:56:33.128Z,65.29
2019-06-26T02:59:03.578Z,63.91
2019-06-26T03:01:33.991Z,61.84
2019-06-26T03:04:04.602Z,60.49
2019-06-26T03:06:35.035Z,58.97
2019-06-26T03:09:07.385Z,57.22
2019-06-26T03:11:37.793Z,57.25
2019-06-26T03:14:08.275Z,58.26
2019-06-26T03:16:39.162Z,59.34
2019-06-26T03:19:09.602Z,60.37
2019-06-26T03:21:39.986Z,61.32
2019-06-26T03:24:10.506Z,61.75
2019-06-26T03:26:40.990Z,62.86
2019-06-26T03:29:11.416Z,65.55
2019-06-26T03:31:41.841Z,63.88
2019-06-26T03:34:12.293Z,61.34
2019-06-26T03:36:42.954Z,59.25
2019-06-26T03:39:13.328Z,56.85
2019-06-26T03:41:43.774Z,56.33
2019-06-26T03:44:14.227Z,56.92
2019-06-26T03:46:44.610Z,57.76
2019-06-26T03:49:15.077Z,58.43
2019-06-26T03:51:45.561Z,59.05
2019-06-26T03:54:15.995Z,59.65
2019-06-26T03:56:46.507Z,60.62
2019-06-26T03:59:17.013Z,61.19
2019-06-26T04:01:47.436Z,61.69
2019-06-26T04:04:17.947Z,62.35
2019-06-26T04:06:48.420Z,63.90
2019-06-26T04:09:18.968Z,62.46
2019-06-26T04:11:49.416Z,60.38
2019-06-26T04:14:20.006Z,58.58
2019-06-26T04:16:50.421Z,56.43
2019-06-26T04:19:20.803Z,56.01
2019-06-26T04:21:51.296Z,56.47
2019-06-26T04:24:21.665Z,57.16
2019-06-26T04:26:52.268Z,58.09
2019-06-26T04:29:22.915Z,58.22
2019-06-26T04:31:53.349Z,58.85
2019-06-26T04:34:23.875Z,59.24
2019-06-26T04:36:55.958Z,59.42
2019-06-26T04:39:26.444Z,59.63
2019-06-26T04:41:56.863Z,59.13
2019-06-26T04:44:27.304Z,59.04
2019-06-26T04:46:57.741Z,58.80
2019-06-26T04:49:28.123Z,58.60
2019-06-26T04:51:58.624Z,59.13
2019-06-26T04:54:29.208Z,59.33
2019-06-26T04:57:00.128Z,59.56
2019-06-26T04:59:30.584Z,59.82
2019-06-26T05:02:01.009Z,60.21
2019-06-26T05:04:31.470Z,59.92
2019-06-26T05:07:01.974Z,59.99
2019-06-26T05:09:32.479Z,59.84
2019-06-26T05:12:03.021Z,59.86
2019-06-26T05:14:33.594Z,59.64
2019-06-26T05:17:04.043Z,59.45
2019-06-26T05:19:34.443Z,59.13
2019-06-26T05:22:05.101Z,58.98
2019-06-26T05:24:35.545Z,59.09
2019-06-26T05:27:05.972Z,59.22
2019-06-26T05:29:36.329Z,59.52
2019-06-26T05:32:06.761Z,59.54
2019-06-26T05:34:37.567Z,59.09
2019-06-26T05:37:08.069Z,58.70
2019-06-26T05:39:39.903Z,58.54
2019-06-26T05:42:10.552Z,58.34
2019-06-26T05:44:41.026Z,57.82
2019-06-26T05:47:11.578Z,57.58
2019-06-26T05:49:42.125Z,57.13
2019-06-26T05:52:16.496Z,57.08
2019-06-26T05:54:45.323Z,56.65
2019-06-26T05:57:16.169Z,56.53
2019-06-26T05:59:46.993Z,56.68
2019-06-26T06:02:17.800Z,56.38
2019-06-26T06:04:48.569Z,55.82
2019-06-26T06:07:19.189Z,55.32
2019-06-26T06:09:49.915Z,55.35
2019-06-26T06:12:20.650Z,54.58
2019-06-26T06:14:51.186Z,54.35
2019-06-26T06:17:21.810Z,54.05
2019-06-26T06:19:52.570Z,53.67
2019-06-26T06:22:23.220Z,53.12
2019-06-26T06:24:54.086Z,52.82
2019-06-26T06:27:24.928Z,52.28
2019-06-26T06:29:57.075Z,51.75
2019-06-26T06:32:27.756Z,51.69
2019-06-26T06:34:58.403Z,51.43
2019-06-26T06:37:29.206Z,50.97
2019-06-26T06:39:59.889Z,50.03
2019-06-26T06:42:30.532Z,50.54
2019-06-26T06:45:01.026Z,49.91
2019-06-26T06:47:31.543Z,50.05
2019-06-26T06:50:02.101Z,49.73
2019-06-26T06:52:32.771Z,50.19
2019-06-26T06:55:04.312Z,49.98
2019-06-26T06:57:34.888Z,49.94
2019-06-26T07:00:07.448Z,50.08
2019-06-26T07:02:38.077Z,49.70
2019-06-26T07:05:10.036Z,49.08
2019-06-26T07:07:40.798Z,49.00
2019-06-26T07:10:11.467Z,49.19
2019-06-26T07:12:42.083Z,48.22
2019-06-26T07:15:13.621Z,48.15
2019-06-26T07:17:44.334Z,47.98
2019-06-26T07:20:14.862Z,47.29
2019-06-26T07:22:45.377Z,47.05
2019-06-26T07:25:16.015Z,46.74
2019-06-26T07:27:46.554Z,46.70
2019-06-26T07:30:17.174Z,46.37
2019-06-26T07:32:47.887Z,46.23
2019-06-26T07:35:18.385Z,45.91
2019-06-26T07:37:49.306Z,45.25
2019-06-26T07:40:19.937Z,45.06
2019-06-26T07:42:50.498Z,44.83
2019-06-26T07:45:23.982Z,44.51
2019-06-26T07:47:53.468Z,44.61
2019-06-26T07:50:24.096Z,43.70
2019-06-26T07:52:54.577Z,43.98
2019-06-26T07:55:25.156Z,43.82
2019-06-26T07:57:55.759Z,43.90
2019-06-26T08:00:26.297Z,43.54
2019-06-26T08:02:56.773Z,42.88
2019-06-26T08:05:27.253Z,42.79
2019-06-26T08:07:57.783Z,42.53
2019-06-26T08:10:28.282Z,42.71
2019-06-26T08:12:58.958Z,43.22
2019-06-26T08:15:29.495Z,42.76
2019-06-26T08:18:01.529Z,42.58
2019-06-26T08:20:32.188Z,42.62
2019-06-26T08:23:03.612Z,42.17
2019-06-26T08:25:34.243Z,41.70
2019-06-26T08:28:04.869Z,41.33
2019-06-26T08:30:35.506Z,40.96
2019-06-26T08:33:06.107Z,41.24
2019-06-26T08:35:36.647Z,41.38
2019-06-26T08:38:11.347Z,41.07
2019-06-26T08:40:39.950Z,40.90
2019-06-26T08:43:10.482Z,40.45
2019-06-26T08:45:40.945Z,40.68
2019-06-26T08:48:22.718Z,38.86
2019-06-26T08:50:43.783Z,39.77
2019-06-26T08:53:14.304Z,40.55
2019-06-26T08:55:44.773Z,40.61
2019-06-26T08:58:15.275Z,40.35
2019-06-26T09:00:46.622Z,40.01
2019-06-26T09:03:17.347Z,39.62
2019-06-26T09:05:48.831Z,39.67
2019-06-26T09:08:19.459Z,39.22
2019-06-26T09:10:50.482Z,38.35
2019-06-26T09:13:21.045Z,38.43
2019-06-26T09:15:51.441Z,38.24
2019-06-26T09:18:34.961Z,38.09
2019-06-26T09:20:54.206Z,37.84
2019-06-26T09:23:24.773Z,37.31
2019-06-26T09:25:55.555Z,37.39
2019-06-26T09:28:26.103Z,37.28
2019-06-26T09:30:56.752Z,36.99
2019-06-26T09:33:27.335Z,37.21
2019-06-26T09:35:57.970Z,36.09
2019-06-26T09:38:29.171Z,36.17
2019-06-26T09:41:00.295Z,36.49
2019-06-26T09:43:30.940Z,35.65
2019-06-26T09:46:01.408Z,35.24
2019-06-26T09:48:32.017Z,35.72
2019-06-26T09:51:02.577Z,35.26
2019-06-26T09:53:46.598Z,35.09
2019-06-26T09:56:05.275Z,35.35
2019-06-26T09:58:35.687Z,35.05
2019-06-26T10:01:06.215Z,35.02
2019-06-26T10:03:36.681Z,35.08
2019-06-26T10:06:07.236Z,35.47
2019-06-26T10:08:37.620Z,35.66
2019-06-26T10:11:08.034Z,35.79
2019-06-26T10:13:38.563Z,35.95
2019-06-26T10:16:09.025Z,35.91
2019-06-26T10:18:39.506Z,35.97
2019-06-26T10:21:09.989Z,36.10
2019-06-26T10:23:40.405Z,35.99
2019-06-26T10:26:10.942Z,36.11
2019-06-26T10:28:41.341Z,35.61
2019-06-26T10:31:11.783Z,36.22
2019-06-26T10:33:42.357Z,36.64
2019-06-26T10:36:13.252Z,36.53
2019-06-26T10:38:43.892Z,36.93
2019-06-26T10:41:14.398Z,37.00
2019-06-26T10:43:44.916Z,36.19
2019-06-26T10:46:15.431Z,36.17
2019-06-26T10:48:45.923Z,36.12
2019-06-26T10:51:16.413Z,35.82
2019-06-26T10:53:46.810Z,35.82
2019-06-26T10:56:17.427Z,35.50
2019-06-26T10:58:47.924Z,35.81
2019-06-26T11:01:18.477Z,34.54
2019-06-26T11:03:48.932Z,34.85
2019-06-26T11:06:19.379Z,34.87
2019-06-26T11:08:50.936Z,34.87
2019-06-26T11:11:21.374Z,34.90
2019-06-26T11:13:51.822Z,34.65
2019-06-26T11:16:22.259Z,33.77
2019-06-26T11:18:53.049Z,34.19
2019-06-26T11:21:23.499Z,34.42
2019-06-26T11:23:54.157Z,34.54
2019-06-26T11:26:24.564Z,34.72
2019-06-26T11:28:55.072Z,34.18
2019-06-26T11:31:25.554Z,33.28
2019-06-26T11:33:56.235Z,33.37
2019-06-26T11:36:26.723Z,33.31
2019-06-26T11:38:58.153Z,33.80
2019-06-26T11:41:32.293Z,33.72
2019-06-26T11:44:03.493Z,33.83
2019-06-26T11:46:37.049Z,32.78
2019-06-26T11:49:10.785Z,32.97
2019-06-26T11:51:59.361Z,32.11
2019-06-26T11:54:37.546Z,32.75
2019-06-26T11:57:19.008Z,32.20
2019-06-26T11:59:50.548Z,32.38
2019-06-26T12:02:25.538Z,32.12
2019-06-26T12:04:56.742Z,31.95
2019-06-26T12:07:29.544Z,31.85
2019-06-26T12:10:12.757Z,32.01
2019-06-26T12:12:45.393Z,32.36
2019-06-26T12:15:18.770Z,31.90
2019-06-26T12:17:51.569Z,31.67
2019-06-26T12:20:32.261Z,31.52
2019-06-26T12:23:08.311Z,31.09
2019-06-26T12:25:44.106Z,30.67
2019-06-26T12:28:37.808Z,31.40
2019-06-26T12:31:12.161Z,31.89
2019-06-26T12:33:46.883Z,31.12
2019-06-26T12:36:23.922Z,30.64
2019-06-26T12:38:55.466Z,30.45
2019-06-26T12:41:40.016Z,30.64
2019-06-26T12:47:34.212Z,30.47
2019-06-26T12:50:35.783Z,30.20
2019-06-26T12:56:39.027Z,30.46
2019-06-26T12:59:16.581Z,30.72
2019-06-26T13:01:48.383Z,30.57
2019-06-26T13:04:38.268Z,30.21
2019-06-26T13:07:18.323Z,30.27
2019-06-26T13:09:49.717Z,29.81
2019-06-26T13:12:27.053Z,29.81
2019-06-26T13:15:10.857Z,29.42
2019-06-26T13:18:20.768Z,28.94
2019-06-26T13:20:55.114Z,28.75
2019-06-26T13:23:32.314Z,28.43
2019-06-26T13:26:04.007Z,27.50
2019-06-26T13:28:38.022Z,27.68
2019-06-26T13:31:10.441Z,28.51
2019-06-26T13:33:41.125Z,28.01
2019-06-26T13:36:11.883Z,26.89
2019-06-26T13:38:42.602Z,26.50
2019-06-26T13:41:13.355Z,27.14
2019-06-26T13:43:43.932Z,27.03
2019-06-26T13:46:14.494Z,26.29
2019-06-26T13:48:45.195Z,25.42
2019-06-26T13:51:15.777Z,25.11
2019-06-26T13:53:46.558Z,25.09
2019-06-26T13:56:17.297Z,25.32
2019-06-26T13:58:47.837Z,25.00
2019-06-26T14:01:22.987Z,24.79
2019-06-26T14:03:53.005Z,24.85
2019-06-26T14:06:23.629Z,25.16
2019-06-26T14:08:54.093Z,24.97
2019-06-26T14:11:24.666Z,25.35
2019-06-26T14:13:56.643Z,25.49
2019-06-26T14:16:29.808Z,24.97
2019-06-26T14:18:59.238Z,25.04
2019-06-26T14:21:29.724Z,25.29
2019-06-26T14:24:00.066Z,24.84
2019-06-26T14:26:30.467Z,24.58
2019-06-26T14:29:00.901Z,23.97
2019-06-26T14:31:31.434Z,23.90
2019-06-26T14:34:01.804Z,24.50
2019-06-26T14:36:32.331Z,24.13
2019-06-26T14:39:03.229Z,23.98
2019-06-26T14:41:33.714Z,24.19
2019-06-26T14:44:04.083Z,24.57
2019-06-26T14:46:34.542Z,23.99
2019-06-26T14:49:05.061Z,23.51
2019-06-26T14:51:45.443Z,23.41
2019-06-26T14:54:07.762Z,23.67
2019-06-26T14:56:38.250Z,24.20
2019-06-26T14:59:08.653Z,24.16
2019-06-26T15:01:39.483Z,23.90
2019-06-26T15:04:09.948Z,24.10
2019-06-26T15:06:40.380Z,24.09
2019-06-26T15:09:10.728Z,24.18
2019-06-26T15:11:41.348Z,24.08
2019-06-26T15:14:12.035Z,23.26
2019-06-26T15:16:42.506Z,22.96
2019-06-26T15:19:13.089Z,23.69
2019-06-26T15:21:57.537Z,24.27
2019-06-26T15:24:15.757Z,24.69
2019-06-26T15:26:46.223Z,24.74
2019-06-26T15:29:16.663Z,24.58
2019-06-26T15:31:47.170Z,24.18
2019-06-26T15:34:17.590Z,24.41
2019-06-26T15:36:48.070Z,24.55
2019-06-26T15:39:18.437Z,24.11
2019-06-26T15:41:48.883Z,23.78
2019-06-26T15:44:19.291Z,22.89
2019-06-26T15:46:49.876Z,23.68
2019-06-26T15:49:20.405Z,23.31
2019-06-26T15:51:50.814Z,23.29
2019-06-26T15:54:21.304Z,23.22
2019-06-26T15:56:51.848Z,22.63
2019-06-26T15:59:22.246Z,22.19
2019-06-26T16:01:52.763Z,21.77
2019-06-26T16:04:23.196Z,21.35
2019-06-26T16:06:53.663Z,21.93
2019-06-26T16:09:24.149Z,22.50
2019-06-26T16:11:54.617Z,22.94
2019-06-26T16:14:25.232Z,23.68
2019-06-26T16:16:57.216Z,24.00
2019-06-26T16:19:27.673Z,24.37
2019-06-26T16:21:58.139Z,24.62
2019-06-26T16:24:30.216Z,25.21
2019-06-26T16:27:00.964Z,25.80
2019-06-26T16:29:31.394Z,25.47
2019-06-26T16:32:01.846Z,25.78
2019-06-26T16:34:32.384Z,25.67
2019-06-26T16:37:02.871Z,25.82
2019-06-26T16:39:33.364Z,25.82
2019-06-26T16:42:03.841Z,26.40
2019-06-26T16:44:34.544Z,26.21
2019-06-26T16:47:05.030Z,26.42
2019-06-26T16:49:35.600Z,26.45
2019-06-26T16:52:06.179Z,26.99
2019-06-26T16:54:36.719Z,27.08
2019-06-26T16:57:07.224Z,27.21
2019-06-26T16:59:37.652Z,27.34
2019-06-26T17:02:08.252Z,27.53
2019-06-26T17:04:38.728Z,27.80
2019-06-26T17:07:09.193Z,27.67
2019-06-26T17:09:39.574Z,28.16
2019-06-26T17:12:10.044Z,28.38
2019-06-26T17:14:40.583Z,28.32
2019-06-26T17:17:11.150Z,28.35
2019-06-26T17:19:41.592Z,28.73
2019-06-26T17:22:12.155Z,28.60
2019-06-26T17:24:42.593Z,28.74
2019-06-26T17:27:13.163Z,28.71
2019-06-26T17:29:43.735Z,28.71
2019-06-26T17:32:14.236Z,28.96
2019-06-26T17:34:44.694Z,28.96
2019-06-26T17:37:15.263Z,28.84
2019-06-26T17:39:45.877Z,28.86
2019-06-26T17:42:16.972Z,29.16
2019-06-26T17:44:47.473Z,28.99
2019-06-26T17:47:17.906Z,29.19
2019-06-26T17:49:48.419Z,28.90
2019-06-26T17:52:18.898Z,29.19
2019-06-26T17:54:49.359Z,29.26
2019-06-26T17:57:19.801Z,29.46
2019-06-26T17:59:50.351Z,29.16
2019-06-26T18:02:20.817Z,30.01
2019-06-26T18:04:51.374Z,29.76
2019-06-26T18:07:22.065Z,29.60
2019-06-26T18:09:52.391Z,29.99
2019-06-26T18:12:22.794Z,29.90
2019-06-26T18:14:53.156Z,30.13
2019-06-26T18:17:23.590Z,30.56
2019-06-26T18:19:54.089Z,30.96
2019-06-26T18:22:24.648Z,31.61
2019-06-26T18:24:55.016Z,31.72
2019-06-26T18:27:25.424Z,32.00
2019-06-26T18:29:55.870Z,32.18
2019-06-26T18:32:26.286Z,32.50
2019-06-26T18:34:56.776Z,32.53
2019-06-26T18:37:27.444Z,32.85
2019-06-26T18:39:58.157Z,33.09
2019-06-26T18:42:28.780Z,33.04
2019-06-26T18:44:59.256Z,33.51
2019-06-26T18:47:29.651Z,33.78
2019-06-26T18:50:00.123Z,33.60
2019-06-26T18:52:30.664Z,33.96
2019-06-26T18:55:01.321Z,34.02
2019-06-26T18:57:32.165Z,34.07
2019-06-26T19:00:02.587Z,34.28
2019-06-26T19:02:33.076Z,34.49
2019-06-26T19:05:04.654Z,35.04
2019-06-26T19:07:35.126Z,35.61
2019-06-26T19:10:08.067Z,35.42
2019-06-26T19:12:38.631Z,35.66
2019-06-26T19:15:09.091Z,36.14
2019-06-26T19:17:42.448Z,36.53
2019-06-26T19:20:12.280Z,36.79
2019-06-26T19:22:42.767Z,36.30
2019-06-26T19:25:13.152Z,37.26
2019-06-26T19:27:43.616Z,36.67
2019-06-26T19:30:14.030Z,36.55
2019-06-26T19:32:44.522Z,36.68
2019-06-26T19:35:19.182Z,36.55
2019-06-26T19:37:47.021Z,36.75
2019-06-26T19:40:17.596Z,36.90
2019-06-26T19:42:48.074Z,36.84
2019-06-26T19:45:18.535Z,36.89
2019-06-26T19:47:48.925Z,36.87
2019-06-26T19:50:23.168Z,36.83
2019-06-26T19:52:51.534Z,36.85
2019-06-26T19:55:21.898Z,37.17
2019-06-26T19:57:52.442Z,37.17
2019-06-26T20:00:22.940Z,37.31
2019-06-26T20:02:53.691Z,37.44
2019-06-26T20:05:24.066Z,37.53
2019-06-26T20:07:54.541Z,37.51
2019-06-26T20:10:24.976Z,37.53
2019-06-26T20:12:55.371Z,37.53
2019-06-26T20:15:25.818Z,37.88
2019-06-26T20:17:56.911Z,37.89
2019-06-26T20:20:27.415Z,37.84
2019-06-26T20:22:57.830Z,37.89
2019-06-26T20:25:28.306Z,37.79
2019-06-26T20:27:58.756Z,37.92
2019-06-26T20:30:33.147Z,37.78
2019-06-26T20:33:04.071Z,37.82
2019-06-26T20:35:34.495Z,37.77
2019-06-26T20:38:04.967Z,37.90
2019-06-26T20:40:35.447Z,37.76
2019-06-26T20:43:05.929Z,37.97
2019-06-26T20:45:36.306Z,37.85
2019-06-26T20:48:06.784Z,37.96
2019-06-26T20:50:37.161Z,37.96
2019-06-26T20:53:08.079Z,38.52
2019-06-26T20:55:38.455Z,38.34
2019-06-26T20:58:08.912Z,38.61
2019-06-26T21:00:39.552Z,38.59
2019-06-26T21:03:10.146Z,38.74
2019-06-26T21:05:40.782Z,38.67
2019-06-26T21:08:11.186Z,38.89
2019-06-26T21:10:41.686Z,38.99
2019-06-26T21:13:12.238Z,38.98
2019-06-26T21:15:42.752Z,39.28
2019-06-26T21:18:13.183Z,39.51
2019-06-26T21:20:43.686Z,39.54
2019-06-26T21:23:18.834Z,39.64
2019-06-26T21:25:46.152Z,39.66
2019-06-26T21:28:16.689Z,39.75
2019-06-26T21:30:47.227Z,40.11
2019-06-26T21:33:17.869Z,40.15
2019-06-26T21:35:48.254Z,40.52
2019-06-26T21:38:18.774Z,40.70
2019-06-26T21:40:49.151Z,41.11
2019-06-26T21:43:19.605Z,41.32
2019-06-26T21:45:50.048Z,41.61
2019-06-26T21:48:20.548Z,41.67
2019-06-26T21:50:50.931Z,41.93
2019-06-26T21:53:21.307Z,42.12
2019-06-26T21:55:51.704Z,42.53
2019-06-26T21:58:22.095Z,42.50
2019-06-26T22:00:52.706Z,42.79
2019-06-26T22:03:23.287Z,42.97
2019-06-26T22:05:53.761Z,43.47
2019-06-26T22:08:24.160Z,43.46
2019-06-26T22:10:54.606Z,43.84
2019-06-26T22:13:25.201Z,44.14
2019-06-26T22:15:55.651Z,44.17
2019-06-26T22:18:26.255Z,44.36
2019-06-26T22:20:56.616Z,44.13
2019-06-26T22:23:27.035Z,44.11
2019-06-26T22:25:57.544Z,44.56
2019-06-26T22:28:28.060Z,44.81
2019-06-26T22:30:58.419Z,44.91
2019-06-26T22:33:28.937Z,45.19
2019-06-26T22:35:59.316Z,45.24
2019-06-26T22:38:29.809Z,45.25
2019-06-26T22:41:00.517Z,45.40
2019-06-26T22:43:31.143Z,45.37
2019-06-26T22:46:01.607Z,45.71
2019-06-26T22:48:32.110Z,45.88
2019-06-26T22:51:03.726Z,46.33
2019-06-26T22:53:34.147Z,45.96
2019-06-26T22:56:08.064Z,45.99
2019-06-26T22:58:36.862Z,46.02
2019-06-26T23:01:07.244Z,46.54
2019-06-26T23:03:37.813Z,46.40
2019-06-26T23:06:08.313Z,46.60
2019-06-26T23:08:38.805Z,46.92
2019-06-26T23:11:09.563Z,46.94
2019-06-26T23:13:39.975Z,47.12
2019-06-26T23:16:10.515Z,47.27
2019-06-26T23:18:41.096Z,47.94
2019-06-26T23:21:11.496Z,48.06
2019-06-26T23:23:41.970Z,48.26
2019-06-26T23:26:23.510Z,48.27
2019-06-26T23:28:44.568Z,48.38
2019-06-26T23:31:14.928Z,48.68
2019-06-26T23:33:45.455Z,49.23
2019-06-26T23:36:15.897Z,49.39
2019-06-26T23:38:46.383Z,49.71
2019-06-26T23:41:18.111Z,49.73
2019-06-26T23:43:48.764Z,49.46
2019-06-26T23:46:19.229Z,49.63
2019-06-26T23:48:49.767Z,49.82
2019-06-26T23:51:20.266Z,50.22
2019-06-26T23:53:50.794Z,50.41
2019-06-26T23:56:21.351Z,50.84
2019-06-26T23:58:51.860Z,51.15
